createdAt,value
2018-07-30T00:00:43.941Z,3.80
2018-07-30T00:03:13.078Z,3.90
2018-07-30T00:05:42.133Z,3.40
2018-07-30T00:08:11.151Z,4.07
2018-07-30T00:10:40.162Z,4.30
2018-07-30T00:13:09.244Z,3.93
2018-07-30T00:15:38.237Z,4.00
2018-07-30T00:18:07.823Z,3.93
2018-07-30T00:20:36.924Z,4.30
2018-07-30T00:23:06.077Z,4.03
2018-07-30T00:25:35.292Z,4.10
2018-07-30T00:28:04.329Z,4.20
2018-07-30T00:30:33.327Z,3.90
2018-07-30T00:33:02.399Z,4.10
2018-07-30T00:35:31.479Z,4.23
2018-07-30T00:38:00.402Z,4.73
2018-07-30T00:40:29.902Z,4.10
2018-07-30T00:42:59.117Z,4.20
2018-07-30T00:45:28.304Z,4.23
2018-07-30T00:47:57.144Z,4.33
2018-07-30T00:50:26.025Z,4.50
2018-07-30T00:52:55.134Z,4.20
2018-07-30T00:55:24.277Z,4.87
2018-07-30T00:57:53.000Z,4.63
2018-07-30T01:00:21.952Z,4.83
2018-07-30T01:02:51.018Z,4.57
2018-07-30T01:05:20.094Z,5.10
2018-07-30T01:07:49.153Z,4.77
2018-07-30T01:10:18.158Z,4.43
2018-07-30T01:12:47.321Z,4.80
2018-07-30T01:15:16.367Z,4.77
2018-07-30T01:17:45.358Z,4.20
2018-07-30T01:20:14.414Z,4.50
2018-07-30T01:22:43.423Z,4.70
2018-07-30T01:25:12.411Z,5.00
2018-07-30T01:27:41.381Z,4.50
2018-07-30T01:30:10.411Z,4.70
2018-07-30T01:32:39.414Z,4.70
2018-07-30T01:35:08.749Z,4.63
2018-07-30T01:37:37.725Z,4.40
2018-07-30T01:40:06.736Z,4.57
2018-07-30T01:42:35.762Z,4.80
2018-07-30T01:45:04.680Z,4.83
2018-07-30T01:47:33.899Z,4.40
2018-07-30T01:50:02.970Z,4.10
2018-07-30T01:52:31.945Z,4.47
2018-07-30T01:55:01.006Z,4.60
2018-07-30T01:57:30.037Z,4.53
2018-07-30T01:59:59.146Z,4.27
2018-07-30T02:02:28.089Z,4.77
2018-07-30T02:04:58.952Z,5.20
2018-07-30T02:07:27.948Z,4.37
2018-07-30T02:09:56.904Z,4.43
2018-07-30T02:12:25.961Z,5.43
2018-07-30T02:14:54.994Z,4.40
2018-07-30T02:17:24.029Z,4.83
2018-07-30T02:19:53.024Z,4.90
2018-07-30T02:22:22.000Z,4.80
2018-07-30T02:24:51.098Z,4.60
2018-07-30T02:27:20.569Z,4.63
2018-07-30T02:29:49.620Z,4.67
2018-07-30T02:32:18.562Z,4.90
2018-07-30T02:34:47.586Z,5.07
2018-07-30T02:37:16.734Z,5.40
2018-07-30T02:39:45.812Z,4.60
2018-07-30T02:42:15.547Z,5.00
2018-07-30T02:44:44.559Z,4.87
2018-07-30T02:47:13.567Z,4.53
2018-07-30T02:49:42.613Z,4.23
2018-07-30T02:52:11.570Z,5.27
2018-07-30T02:54:40.623Z,4.50
2018-07-30T02:57:10.094Z,4.97
2018-07-30T02:59:39.127Z,5.47
2018-07-30T03:02:08.283Z,5.10
2018-07-30T03:04:37.566Z,5.70
2018-07-30T03:07:06.431Z,4.57
2018-07-30T03:09:35.309Z,4.23
2018-07-30T03:12:04.445Z,5.37
2018-07-30T03:14:33.532Z,5.60
2018-07-30T03:17:02.588Z,4.60
2018-07-30T03:19:31.628Z,5.83
2018-07-30T03:22:01.140Z,5.20
2018-07-30T03:24:30.163Z,4.63
2018-07-30T03:26:59.174Z,4.80
2018-07-30T03:29:28.170Z,5.00
2018-07-30T03:31:57.307Z,5.57
2018-07-30T03:34:26.721Z,4.73
2018-07-30T03:36:55.693Z,5.27
2018-07-30T03:39:24.757Z,5.70
2018-07-30T03:41:53.761Z,5.33
2018-07-30T03:44:22.913Z,5.40
2018-07-30T03:46:51.962Z,5.03
2018-07-30T03:49:20.982Z,4.63
2018-07-30T03:51:50.164Z,4.73
2018-07-30T03:54:19.517Z,5.83
2018-07-30T03:56:48.505Z,5.93
2018-07-30T03:59:17.470Z,5.60
2018-07-30T04:01:46.611Z,5.30
2018-07-30T04:04:15.661Z,5.20
2018-07-30T04:06:45.871Z,5.13
2018-07-30T04:09:15.077Z,5.13
2018-07-30T04:11:44.072Z,5.17
2018-07-30T04:14:13.143Z,5.07
2018-07-30T04:16:47.772Z,5.27
2018-07-30T04:19:17.101Z,5.83
2018-07-30T04:21:46.407Z,5.37
2018-07-30T04:24:15.673Z,5.30
2018-07-30T04:26:46.084Z,5.30
2018-07-30T04:29:16.022Z,5.60
2018-07-30T04:31:45.350Z,5.20
2018-07-30T04:34:14.322Z,5.33
2018-07-30T04:36:43.423Z,4.53
2018-07-30T04:39:13.908Z,5.13
2018-07-30T04:41:43.624Z,5.87
2018-07-30T04:44:12.803Z,4.77
2018-07-30T04:46:41.768Z,5.30
2018-07-30T04:49:10.847Z,4.80
2018-07-30T04:51:39.931Z,4.57
2018-07-30T04:54:10.569Z,5.30
2018-07-30T04:56:39.551Z,4.80
2018-07-30T04:59:08.581Z,4.87
2018-07-30T05:01:37.579Z,4.70
2018-07-30T05:04:06.675Z,5.10
2018-07-30T05:06:35.397Z,4.70
2018-07-30T05:09:06.653Z,5.67
2018-07-30T05:11:35.664Z,5.43
2018-07-30T05:14:05.081Z,5.23
2018-07-30T05:16:34.173Z,6.00
2018-07-30T05:19:03.156Z,5.90
2018-07-30T05:21:32.177Z,6.27
2018-07-30T05:24:01.153Z,5.60
2018-07-30T05:26:30.307Z,5.67
2018-07-30T05:28:59.333Z,5.87
2018-07-30T05:31:28.595Z,4.87
2018-07-30T05:33:57.643Z,5.00
2018-07-30T05:36:26.622Z,5.40
2018-07-30T05:38:56.109Z,5.00
2018-07-30T05:41:25.374Z,5.20
2018-07-30T05:43:54.462Z,6.00
2018-07-30T05:46:23.696Z,5.43
2018-07-30T05:48:52.695Z,6.13
2018-07-30T05:51:21.680Z,4.57
2018-07-30T05:53:50.909Z,4.80
2018-07-30T05:56:20.048Z,4.67
2018-07-30T05:58:49.215Z,4.60
2018-07-30T06:01:18.436Z,4.70
2018-07-30T06:03:47.434Z,4.57
2018-07-30T06:06:16.629Z,5.50
2018-07-30T06:08:46.785Z,4.87
2018-07-30T06:11:16.144Z,5.43
2018-07-30T06:13:45.121Z,5.23
2018-07-30T06:16:14.145Z,4.83
2018-07-30T06:18:43.290Z,5.23
2018-07-30T06:21:12.343Z,4.90
2018-07-30T06:23:41.500Z,5.70
2018-07-30T06:26:10.971Z,6.50
2018-07-30T06:28:40.716Z,5.47
2018-07-30T06:31:09.849Z,5.47
2018-07-30T06:33:38.954Z,4.57
2018-07-30T06:36:08.327Z,5.03
2018-07-30T06:38:37.531Z,4.47
2018-07-30T06:41:06.571Z,4.10
2018-07-30T06:43:35.761Z,4.77
2018-07-30T06:46:05.143Z,4.50
2018-07-30T06:48:34.636Z,5.03
2018-07-30T06:51:03.986Z,4.67
2018-07-30T06:53:33.232Z,3.67
2018-07-30T06:56:02.349Z,3.57
2018-07-30T06:58:31.479Z,4.20
2018-07-30T07:01:00.868Z,3.90
2018-07-30T07:03:29.967Z,3.70
2018-07-30T07:05:59.105Z,3.73
2018-07-30T07:08:28.205Z,3.20
2018-07-30T07:10:57.504Z,3.83
2018-07-30T07:13:27.505Z,3.43
2018-07-30T07:15:57.024Z,3.23
2018-07-30T07:18:26.645Z,3.90
2018-07-30T07:20:56.179Z,3.00
2018-07-30T07:23:25.602Z,3.47
2018-07-30T07:25:54.602Z,3.00
2018-07-30T07:28:23.624Z,3.90
2018-07-30T07:30:53.064Z,3.63
2018-07-30T07:33:22.049Z,3.43
2018-07-30T07:35:51.140Z,3.63
2018-07-30T07:38:20.209Z,3.43
2018-07-30T07:40:49.194Z,3.43
2018-07-30T07:43:18.194Z,2.97
2018-07-30T07:45:47.362Z,3.40
2018-07-30T07:48:20.810Z,4.07
2018-07-30T07:50:52.366Z,3.20
2018-07-30T07:53:21.359Z,3.80
2018-07-30T07:55:50.579Z,3.60
2018-07-30T07:58:24.416Z,3.97
2018-07-30T08:00:56.697Z,3.37
2018-07-30T08:03:52.297Z,3.03
2018-07-30T08:06:22.287Z,3.70
2018-07-30T08:08:51.180Z,3.97
2018-07-30T08:11:20.212Z,3.90
2018-07-30T08:13:51.767Z,3.77
2018-07-30T08:16:23.665Z,3.23
2018-07-30T08:18:52.769Z,3.90
2018-07-30T08:21:24.345Z,4.20
2018-07-30T08:23:53.614Z,4.20
2018-07-30T08:26:22.837Z,4.20
2018-07-30T08:28:51.794Z,5.13
2018-07-30T08:31:20.820Z,4.80
2018-07-30T08:33:50.273Z,4.90
2018-07-30T08:36:19.563Z,4.83
2018-07-30T08:38:48.569Z,4.70
2018-07-30T08:41:17.809Z,4.67
2018-07-30T08:43:46.941Z,4.00
2018-07-30T08:46:15.975Z,4.20
2018-07-30T08:48:45.235Z,5.10
2018-07-30T08:51:14.568Z,4.50
2018-07-30T08:53:43.761Z,5.47
2018-07-30T08:56:13.090Z,5.00
2018-07-30T08:58:42.248Z,4.73
2018-07-30T09:01:50.171Z,4.67
2018-07-30T09:04:19.383Z,4.73
2018-07-30T09:06:48.577Z,4.60
2018-07-30T09:09:17.775Z,4.20
2018-07-30T09:11:46.889Z,5.13
2018-07-30T09:14:15.928Z,4.03
2018-07-30T09:16:45.190Z,4.00
2018-07-30T09:19:14.284Z,4.30
2018-07-30T09:21:43.225Z,4.00
2018-07-30T09:24:12.892Z,4.03
2018-07-30T09:26:41.931Z,4.07
2018-07-30T09:29:11.074Z,3.20
2018-07-30T09:31:40.178Z,4.00
2018-07-30T09:34:09.564Z,3.20
2018-07-30T09:36:38.689Z,3.20
2018-07-30T09:39:09.201Z,3.20
2018-07-30T09:41:38.148Z,3.07
2018-07-30T09:44:07.053Z,3.00
2018-07-30T09:46:36.150Z,3.23
2018-07-30T09:49:05.473Z,4.10
2018-07-30T09:51:34.793Z,3.00
2018-07-30T09:54:03.767Z,3.07
2018-07-30T09:56:32.774Z,3.30
2018-07-30T09:59:01.524Z,3.00
2018-07-30T10:01:31.204Z,3.57
2018-07-30T10:04:00.956Z,3.13
2018-07-30T10:06:30.157Z,3.40
2018-07-30T10:08:59.169Z,3.67
2018-07-30T10:11:28.135Z,3.87
2018-07-30T10:13:57.625Z,3.50
2018-07-30T10:16:26.784Z,3.60
2018-07-30T10:18:55.661Z,3.33
2018-07-30T10:21:24.701Z,3.20
2018-07-30T10:23:53.693Z,3.40
2018-07-30T10:26:23.016Z,2.97
2018-07-30T10:28:52.010Z,3.40
2018-07-30T10:31:21.213Z,3.20
2018-07-30T10:33:50.353Z,3.20
2018-07-30T10:36:19.562Z,3.50
2018-07-30T10:38:48.598Z,3.30
2018-07-30T10:41:17.762Z,3.93
2018-07-30T10:43:46.811Z,3.53
2018-07-30T10:46:15.929Z,3.10
2018-07-30T10:48:45.089Z,3.17
2018-07-30T10:51:14.221Z,3.47
2018-07-30T10:53:43.500Z,3.60
2018-07-30T10:56:12.474Z,3.63
2018-07-30T10:58:41.637Z,3.73
2018-07-30T11:01:10.918Z,3.70
2018-07-30T11:03:40.018Z,3.98
2018-07-30T11:06:09.080Z,4.08
2018-07-30T11:08:38.158Z,3.55
2018-07-30T11:11:07.546Z,2.90
2018-07-30T11:13:36.711Z,3.15
2018-07-30T11:16:05.806Z,3.33
2018-07-30T11:18:34.786Z,3.58
2018-07-30T11:21:04.294Z,3.25
2018-07-30T11:23:33.285Z,3.35
2018-07-30T11:26:02.293Z,3.17
2018-07-30T11:28:31.251Z,3.47
2018-07-30T11:31:00.198Z,3.10
2018-07-30T11:33:29.187Z,3.17
2018-07-30T11:35:58.129Z,2.40
2018-07-30T11:38:27.185Z,3.00
2018-07-30T11:40:56.331Z,4.00
2018-07-30T11:43:25.383Z,3.20
2018-07-30T11:45:54.384Z,3.15
2018-07-30T11:48:23.536Z,2.58
2018-07-30T11:50:52.365Z,2.40
2018-07-30T11:53:21.278Z,2.30
2018-07-30T11:55:50.302Z,2.45
2018-07-30T11:58:19.288Z,2.22
2018-07-30T12:00:48.437Z,2.33
2018-07-30T12:03:17.403Z,2.10
2018-07-30T12:05:46.599Z,2.70
2018-07-30T12:08:15.622Z,2.25
2018-07-30T12:10:44.812Z,2.70
2018-07-30T12:13:13.578Z,2.30
2018-07-30T12:15:42.574Z,2.42
2018-07-30T12:18:11.564Z,2.30
2018-07-30T12:20:40.593Z,2.25
2018-07-30T12:23:09.840Z,2.05
2018-07-30T12:25:39.958Z,2.47
2018-07-30T12:28:09.028Z,2.22
2018-07-30T12:30:39.246Z,2.22
2018-07-30T12:33:08.172Z,2.25
2018-07-30T12:35:37.213Z,2.05
2018-07-30T12:38:06.353Z,2.17
2018-07-30T12:40:35.542Z,1.90
2018-07-30T12:43:05.714Z,2.27
2018-07-30T12:45:40.058Z,2.37
2018-07-30T12:48:10.196Z,2.20
2018-07-30T12:50:39.357Z,2.40
2018-07-30T12:53:08.549Z,2.10
2018-07-30T12:55:38.078Z,2.22
2018-07-30T12:58:07.971Z,2.22
2018-07-30T13:00:37.201Z,2.37
2018-07-30T13:03:06.131Z,2.30
2018-07-30T13:05:35.133Z,2.35
2018-07-30T13:08:04.146Z,2.12
2018-07-30T13:10:33.133Z,2.58
2018-07-30T13:13:02.118Z,2.15
2018-07-30T13:15:31.159Z,2.22
2018-07-30T13:17:59.946Z,2.15
2018-07-30T13:20:28.874Z,2.08
2018-07-30T13:22:58.054Z,2.47
2018-07-30T13:25:27.241Z,2.20
2018-07-30T13:27:56.521Z,2.50
2018-07-30T13:30:25.583Z,2.20
2018-07-30T13:32:54.631Z,2.63
2018-07-30T13:35:23.760Z,2.40
2018-07-30T13:37:52.934Z,2.53
2018-07-30T13:40:22.109Z,2.73
2018-07-30T13:42:51.087Z,2.47
2018-07-30T13:45:20.056Z,2.30
2018-07-30T13:47:49.144Z,2.30
2018-07-30T13:50:18.367Z,2.30
2018-07-30T13:52:47.412Z,2.45
2018-07-30T13:55:16.493Z,2.10
2018-07-30T13:57:45.653Z,2.33
2018-07-30T14:00:14.943Z,1.97
2018-07-30T14:02:44.041Z,2.10
2018-07-30T14:05:13.026Z,2.30
2018-07-30T14:07:42.285Z,2.40
2018-07-30T14:10:11.455Z,2.47
2018-07-30T14:12:40.505Z,2.20
2018-07-30T14:15:10.592Z,2.50
2018-07-30T14:17:41.068Z,2.02
2018-07-30T14:20:11.072Z,2.40
2018-07-30T14:22:41.588Z,2.42
2018-07-30T14:25:10.684Z,3.40
2018-07-30T14:27:39.779Z,3.05
2018-07-30T14:30:09.642Z,2.80
2018-07-30T14:32:39.158Z,2.70
2018-07-30T14:35:08.427Z,2.60
2018-07-30T14:37:38.565Z,2.90
2018-07-30T14:40:09.343Z,6.63
2018-07-30T14:42:38.511Z,2.40
2018-07-30T14:45:07.812Z,2.60
2018-07-30T14:47:37.389Z,2.50
2018-07-30T14:50:07.173Z,2.70
2018-07-30T14:52:36.245Z,2.67
2018-07-30T14:55:06.068Z,2.30
2018-07-30T14:57:35.165Z,2.40
2018-07-30T15:00:05.706Z,2.75
2018-07-30T15:02:34.946Z,2.60
2018-07-30T15:05:04.377Z,2.80
2018-07-30T15:07:33.578Z,2.40
2018-07-30T15:10:02.791Z,2.50
2018-07-30T15:12:32.227Z,2.13
2018-07-30T15:15:01.379Z,2.43
2018-07-30T15:17:30.589Z,2.60
2018-07-30T15:19:59.561Z,2.60
2018-07-30T15:22:28.574Z,2.67
2018-07-30T15:24:57.826Z,2.40
2018-07-30T15:27:27.109Z,2.40
2018-07-30T15:29:56.144Z,2.70
2018-07-30T15:32:25.731Z,2.40
2018-07-30T15:34:54.971Z,2.63
2018-07-30T15:37:24.104Z,2.70
2018-07-30T15:39:53.483Z,2.20
2018-07-30T15:42:22.611Z,2.60
2018-07-30T15:44:51.611Z,2.70
2018-07-30T15:47:20.745Z,2.57
2018-07-30T15:49:49.883Z,3.00
2018-07-30T15:52:18.953Z,2.30
2018-07-30T15:54:48.146Z,2.40
2018-07-30T15:57:17.220Z,2.62
2018-07-30T15:59:47.320Z,2.53
2018-07-30T16:02:16.482Z,2.23
2018-07-30T16:04:45.397Z,2.20
2018-07-30T16:07:16.466Z,2.53
2018-07-30T16:09:45.534Z,2.27
2018-07-30T16:12:15.604Z,2.60
2018-07-30T16:14:44.703Z,2.40
2018-07-30T16:17:13.721Z,2.33
2018-07-30T16:19:42.774Z,2.43
2018-07-30T16:22:11.805Z,3.00
2018-07-30T16:24:40.935Z,2.03
2018-07-30T16:27:12.033Z,2.20
2018-07-30T16:29:43.121Z,2.77
2018-07-30T16:32:12.076Z,2.37
2018-07-30T16:34:41.244Z,2.50
2018-07-30T16:37:12.701Z,2.70
2018-07-30T16:39:41.829Z,2.30
2018-07-30T16:42:10.915Z,2.40
2018-07-30T16:44:40.068Z,2.80
2018-07-30T16:47:09.214Z,2.13
2018-07-30T16:49:38.000Z,2.30
2018-07-30T16:52:07.202Z,2.20
2018-07-30T16:54:36.271Z,2.70
2018-07-30T16:57:05.823Z,2.40
2018-07-30T16:59:34.887Z,2.30
2018-07-30T17:02:04.170Z,2.30
2018-07-30T17:04:33.350Z,2.10
2018-07-30T17:07:03.914Z,2.27
2018-07-30T17:09:33.059Z,2.10
2018-07-30T17:12:02.078Z,2.27
2018-07-30T17:14:31.393Z,2.50
2018-07-30T17:17:00.604Z,2.73
2018-07-30T17:19:29.598Z,2.53
2018-07-30T17:21:58.728Z,2.20
2018-07-30T17:24:28.898Z,2.73
2018-07-30T17:26:58.062Z,2.57
2018-07-30T17:29:27.249Z,2.77
2018-07-30T17:31:56.397Z,2.67
2018-07-30T17:34:25.545Z,2.30
2018-07-30T17:36:54.998Z,2.70
2018-07-30T17:39:24.133Z,2.90
2018-07-30T17:41:53.300Z,2.70
2018-07-30T17:44:22.494Z,2.40
2018-07-30T17:46:52.047Z,2.50
2018-07-30T17:49:21.083Z,2.53
2018-07-30T17:51:50.285Z,2.40
2018-07-30T17:54:19.733Z,2.50
2018-07-30T17:56:48.994Z,2.63
2018-07-30T17:59:18.312Z,2.40
2018-07-30T18:01:47.400Z,2.47
2018-07-30T18:04:16.417Z,2.43
2018-07-30T18:06:45.404Z,2.40
2018-07-30T18:09:14.470Z,2.37
2018-07-30T18:11:43.612Z,2.40
2018-07-30T18:14:12.666Z,2.87
2018-07-30T18:16:41.855Z,2.60
2018-07-30T18:19:10.968Z,2.50
2018-07-30T18:21:40.025Z,2.80
2018-07-30T18:24:09.123Z,2.57
2018-07-30T18:26:38.277Z,2.47
2018-07-30T18:29:08.352Z,2.77
2018-07-30T18:31:37.379Z,2.50
2018-07-30T18:34:06.457Z,2.83
2018-07-30T18:36:35.262Z,2.93
2018-07-30T18:39:05.828Z,2.50
2018-07-30T18:41:34.885Z,2.57
2018-07-30T18:44:04.064Z,2.80
2018-07-30T18:46:33.392Z,2.70
2018-07-30T18:49:02.747Z,2.70
2018-07-30T18:51:31.832Z,3.00
2018-07-30T18:54:01.992Z,3.17
2018-07-30T18:56:31.431Z,2.77
2018-07-30T18:59:00.562Z,2.70
2018-07-30T19:01:29.970Z,2.73
2018-07-30T19:03:59.478Z,2.70
2018-07-30T19:06:28.630Z,2.80
2018-07-30T19:08:57.516Z,2.87
2018-07-30T19:11:26.400Z,2.70
2018-07-30T19:13:55.574Z,3.10
2018-07-30T19:16:24.890Z,3.00
2018-07-30T19:18:54.246Z,3.27
2018-07-30T19:21:23.507Z,3.67
2018-07-30T19:23:52.833Z,3.80
2018-07-30T19:26:22.128Z,4.00
2018-07-30T19:28:51.210Z,4.70
2018-07-30T19:31:20.414Z,3.53
2018-07-30T19:33:49.594Z,3.33
2018-07-30T19:36:18.929Z,4.50
2018-07-30T19:38:47.945Z,4.50
2018-07-30T19:41:17.108Z,5.73
2018-07-30T19:43:47.453Z,5.20
2018-07-30T19:46:17.005Z,4.67
2018-07-30T19:48:46.146Z,5.43
2018-07-30T19:51:15.593Z,4.77
2018-07-30T19:53:44.699Z,5.97
2018-07-30T19:56:14.048Z,4.53
2018-07-30T19:58:44.440Z,6.60
2018-07-30T20:01:13.529Z,5.77
2018-07-30T20:03:42.524Z,4.30
2018-07-30T20:06:11.514Z,4.80
2018-07-30T20:08:40.600Z,3.30
2018-07-30T20:11:09.805Z,2.93
2018-07-30T20:13:38.917Z,2.60
2018-07-30T20:16:09.104Z,2.53
2018-07-30T20:18:38.199Z,2.40
2018-07-30T20:21:07.209Z,2.47
2018-07-30T20:23:36.257Z,2.50
2018-07-30T20:26:05.449Z,3.00
2018-07-30T20:28:34.470Z,2.70
2018-07-30T20:31:03.743Z,2.70
2018-07-30T20:33:32.799Z,2.80
2018-07-30T20:36:01.867Z,2.70
2018-07-30T20:38:31.082Z,2.40
2018-07-30T20:41:00.149Z,2.40
2018-07-30T20:43:29.206Z,2.40
2018-07-30T20:45:58.376Z,2.27
2018-07-30T20:48:27.495Z,2.60
2018-07-30T20:50:56.540Z,2.40
2018-07-30T20:53:25.919Z,3.23
2018-07-30T20:55:55.569Z,2.53
2018-07-30T20:58:24.866Z,2.73
2018-07-30T21:00:54.040Z,2.83
2018-07-30T21:03:23.372Z,2.27
2018-07-30T21:05:52.503Z,2.67
2018-07-30T21:08:21.669Z,2.57
2018-07-30T21:10:50.759Z,2.33
2018-07-30T21:13:19.790Z,2.67
2018-07-30T21:15:49.268Z,2.33
2018-07-30T21:18:18.378Z,3.20
2018-07-30T21:20:47.682Z,2.50
2018-07-30T21:23:16.941Z,2.77
2018-07-30T21:25:45.942Z,2.40
2018-07-30T21:28:15.121Z,2.30
2018-07-30T21:30:44.450Z,2.57
2018-07-30T21:33:14.370Z,2.30
2018-07-30T21:35:43.409Z,2.50
2018-07-30T21:38:12.665Z,2.53
2018-07-30T21:40:42.430Z,2.93
2018-07-30T21:43:11.426Z,2.40
2018-07-30T21:45:40.621Z,2.70
2018-07-30T21:48:09.601Z,2.77
2018-07-30T21:50:38.909Z,3.00
2018-07-30T21:53:09.303Z,2.70
2018-07-30T21:55:38.475Z,2.73
2018-07-30T21:58:07.393Z,2.70
2018-07-30T22:00:36.409Z,2.77
2018-07-30T22:03:05.772Z,2.50
2018-07-30T22:05:35.115Z,2.90
2018-07-30T22:08:04.305Z,2.60
2018-07-30T22:10:33.298Z,2.60
2018-07-30T22:13:02.269Z,2.70
2018-07-30T22:15:31.250Z,3.10
2018-07-30T22:18:00.432Z,3.53
2018-07-30T22:20:29.496Z,3.37
2018-07-30T22:22:58.746Z,3.17
2018-07-30T22:25:27.757Z,3.47
2018-07-30T22:27:56.813Z,3.00
2018-07-30T22:30:25.758Z,3.20
2018-07-30T22:32:55.022Z,3.53
2018-07-30T22:35:24.174Z,4.23
2018-07-30T22:37:53.181Z,3.70
2018-07-30T22:40:23.060Z,3.20
2018-07-30T22:42:52.041Z,3.50
2018-07-30T22:45:21.037Z,3.90
2018-07-30T22:47:50.034Z,4.00
2018-07-30T22:50:19.183Z,3.90
2018-07-30T22:52:48.275Z,3.37
2018-07-30T22:55:17.069Z,4.10
2018-07-30T22:57:46.022Z,4.17
2018-07-30T23:00:15.031Z,3.70
2018-07-30T23:02:43.719Z,4.00
2018-07-30T23:05:12.621Z,4.20
2018-07-30T23:07:41.923Z,4.13
2018-07-30T23:10:11.026Z,4.30
2018-07-30T23:12:39.727Z,4.40
2018-07-30T23:15:08.767Z,3.63
2018-07-30T23:17:38.095Z,3.80
2018-07-30T23:20:07.291Z,4.20
2018-07-30T23:22:36.220Z,4.80
2018-07-30T23:25:05.797Z,4.20
2018-07-30T23:27:34.766Z,4.20
2018-07-30T23:30:03.822Z,3.80
2018-07-30T23:32:32.976Z,4.40
2018-07-30T23:35:01.716Z,3.77
2018-07-30T23:37:30.591Z,4.23
2018-07-30T23:39:59.710Z,4.10
2018-07-30T23:42:28.660Z,4.80
2018-07-30T23:44:57.743Z,4.23
2018-07-30T23:47:27.003Z,5.10
2018-07-30T23:49:56.027Z,4.97
2018-07-30T23:52:25.064Z,4.40
2018-07-30T23:54:54.113Z,4.87
2018-07-30T23:57:23.110Z,5.80
2018-07-30T23:59:52.478Z,5.70
